sensor_id;sensor_type;location;lat;lon;timestamp;temperature;humidity
71672;DHT22;67659;45.554;11.812;2023-04-01T00:00:32;10.50;99.90
71672;DHT22;67659;45.554;11.812;2023-04-01T00:02:58;10.60;99.90
71672;DHT22;67659;45.554;11.812;2023-04-01T00:05:24;10.60;99.90
71672;DHT22;67659;45.554;11.812;2023-04-01T00:07:50;10.50;99.90
71672;DHT22;67659;45.554;11.812;2023-04-01T00:10:16;10.60;99.90
71672;DHT22;67659;45.554;11.812;2023-04-01T00:12:42;10.50;99.90
71672;DHT22;67659;45.554;11.812;2023-04-01T00:15:10;10.30;99.90
71672;DHT22;67659;45.554;11.812;2023-04-01T00:17:37;10.10;99.90
71672;DHT22;67659;45.554;11.812;2023-04-01T00:20:04;10.20;99.90
71672;DHT22;67659;45.554;11.812;2023-04-01T00:22:30;10.40;99.90
71672;DHT22;67659;45.554;11.812;2023-04-01T00:24:55;10.50;99.90
71672;DHT22;67659;45.554;11.812;2023-04-01T00:27:21;10.70;99.90
71672;DHT22;67659;45.554;11.812;2023-04-01T00:29:47;10.60;99.90
71672;DHT22;67659;45.554;11.812;2023-04-01T00:32:14;10.50;99.90
71672;DHT22;67659;45.554;11.812;2023-04-01T00:34:40;10.40;99.90
71672;DHT22;67659;45.554;11.812;2023-04-01T00:37:07;10.60;99.90
71672;DHT22;67659;45.554;11.812;2023-04-01T00:39:34;10.70;99.90
71672;DHT22;67659;45.554;11.812;2023-04-01T00:42:01;10.80;99.90
71672;DHT22;67659;45.554;11.812;2023-04-01T00:44:29;10.80;99.90
71672;DHT22;67659;45.554;11.812;2023-04-01T00:46:56;10.80;99.90
71672;DHT22;67659;45.554;11.812;2023-04-01T00:49:26;10.70;99.90
71672;DHT22;67659;45.554;11.812;2023-04-01T00:51:56;10.70;99.90
71672;DHT22;67659;45.554;11.812;2023-04-01T00:54:24;10.80;99.90
71672;DHT22;67659;45.554;11.812;2023-04-01T00:59:25;10.90;99.90
71672;DHT22;67659;45.554;11.812;2023-04-01T01:01:52;10.70;99.90
71672;DHT22;67659;45.554;11.812;2023-04-01T01:04:30;10.50;99.90
71672;DHT22;67659;45.554;11.812;2023-04-01T01:07:29;10.70;99.90
71672;DHT22;67659;45.554;11.812;2023-04-01T01:34:32;10.20;99.90
71672;DHT22;67659;45.554;11.812;2023-04-01T01:37:08;10.30;99.90
71672;DHT22;67659;45.554;11.812;2023-04-01T01:39:36;10.40;99.90
71672;DHT22;67659;45.554;11.812;2023-04-01T01:42:06;10.50;99.90
71672;DHT22;67659;45.554;11.812;2023-04-01T01:44:33;10.60;99.90
71672;DHT22;67659;45.554;11.812;2023-04-01T01:47:01;10.60;99.90
71672;DHT22;67659;45.554;11.812;2023-04-01T01:49:28;10.70;99.90
71672;DHT22;67659;45.554;11.812;2023-04-01T01:51:56;10.80;99.90
71672;DHT22;67659;45.554;11.812;2023-04-01T01:54:22;10.90;99.90
71672;DHT22;67659;45.554;11.812;2023-04-01T01:56:50;11.00;99.90
71672;DHT22;67659;45.554;11.812;2023-04-01T01:59:19;11.10;99.90
71672;DHT22;67659;45.554;11.812;2023-04-01T02:01:52;11.10;99.90
71672;DHT22;67659;45.554;11.812;2023-04-01T02:04:19;11.20;99.90
71672;DHT22;67659;45.554;11.812;2023-04-01T02:06:54;11.20;99.90
71672;DHT22;67659;45.554;11.812;2023-04-01T02:09:21;11.40;99.90
71672;DHT22;67659;45.554;11.812;2023-04-01T02:11:48;11.40;99.90
71672;DHT22;67659;45.554;11.812;2023-04-01T02:17:02;11.70;99.90
71672;DHT22;67659;45.554;11.812;2023-04-01T02:19:34;11.30;99.90
71672;DHT22;67659;45.554;11.812;2023-04-01T02:22:03;11.40;99.90
71672;DHT22;67659;45.554;11.812;2023-04-01T02:24:31;11.40;99.90
71672;DHT22;67659;45.554;11.812;2023-04-01T02:26:59;11.60;99.90
71672;DHT22;67659;45.554;11.812;2023-04-01T02:29:25;11.40;99.90
71672;DHT22;67659;45.554;11.812;2023-04-01T02:31:52;11.30;99.90
71672;DHT22;67659;45.554;11.812;2023-04-01T02:34:19;11.20;99.90
71672;DHT22;67659;45.554;11.812;2023-04-01T02:36:47;11.00;99.90
71672;DHT22;67659;45.554;11.812;2023-04-01T02:39:13;10.90;99.90
71672;DHT22;67659;45.554;11.812;2023-04-01T02:41:44;10.80;99.90
71672;DHT22;67659;45.554;11.812;2023-04-01T02:44:12;10.80;99.90
71672;DHT22;67659;45.554;11.812;2023-04-01T02:46:38;10.70;99.90
71672;DHT22;67659;45.554;11.812;2023-04-01T02:49:05;10.40;99.90
71672;DHT22;67659;45.554;11.812;2023-04-01T02:51:31;10.30;99.90
71672;DHT22;67659;45.554;11.812;2023-04-01T02:53:56;10.00;99.90
71672;DHT22;67659;45.554;11.812;2023-04-01T02:56:23;9.80;99.90
71672;DHT22;67659;45.554;11.812;2023-04-01T02:58:48;9.70;99.90
71672;DHT22;67659;45.554;11.812;2023-04-01T03:01:15;9.80;99.90
71672;DHT22;67659;45.554;11.812;2023-04-01T03:03:40;9.80;99.90
71672;DHT22;67659;45.554;11.812;2023-04-01T03:06:07;9.90;99.90
71672;DHT22;67659;45.554;11.812;2023-04-01T03:08:34;9.90;99.90
71672;DHT22;67659;45.554;11.812;2023-04-01T03:11:00;9.90;99.90
71672;DHT22;67659;45.554;11.812;2023-04-01T03:13:26;9.60;99.90
71672;DHT22;67659;45.554;11.812;2023-04-01T03:15:52;9.20;99.90
71672;DHT22;67659;45.554;11.812;2023-04-01T03:18:18;9.30;99.90
71672;DHT22;67659;45.554;11.812;2023-04-01T03:20:45;9.50;99.90
71672;DHT22;67659;45.554;11.812;2023-04-01T03:23:10;9.50;99.90
71672;DHT22;67659;45.554;11.812;2023-04-01T03:25:36;9.50;99.90
71672;DHT22;67659;45.554;11.812;2023-04-01T03:28:03;9.50;99.90
71672;DHT22;67659;45.554;11.812;2023-04-01T03:30:28;9.50;99.90
71672;DHT22;67659;45.554;11.812;2023-04-01T03:32:57;9.40;99.90
71672;DHT22;67659;45.554;11.812;2023-04-01T03:35:24;9.30;99.90
71672;DHT22;67659;45.554;11.812;2023-04-01T03:37:52;9.40;99.90
71672;DHT22;67659;45.554;11.812;2023-04-01T03:40:18;9.50;99.90
71672;DHT22;67659;45.554;11.812;2023-04-01T03:42:44;9.50;99.90
71672;DHT22;67659;45.554;11.812;2023-04-01T03:45:10;9.50;99.90
71672;DHT22;67659;45.554;11.812;2023-04-01T03:47:38;9.60;99.90
71672;DHT22;67659;45.554;11.812;2023-04-01T03:50:07;9.60;99.90
71672;DHT22;67659;45.554;11.812;2023-04-01T03:52:33;9.60;99.90
71672;DHT22;67659;45.554;11.812;2023-04-01T03:55:00;9.40;99.90
71672;DHT22;67659;45.554;11.812;2023-04-01T03:57:26;9.00;99.90
71672;DHT22;67659;45.554;11.812;2023-04-01T03:59:51;8.80;99.90
71672;DHT22;67659;45.554;11.812;2023-04-01T04:02:17;8.90;99.90
71672;DHT22;67659;45.554;11.812;2023-04-01T04:04:49;8.90;99.90
71672;DHT22;67659;45.554;11.812;2023-04-01T04:07:17;8.80;99.90
71672;DHT22;67659;45.554;11.812;2023-04-01T04:09:44;8.80;99.90
71672;DHT22;67659;45.554;11.812;2023-04-01T04:12:10;8.60;99.90
71672;DHT22;67659;45.554;11.812;2023-04-01T04:14:35;8.70;99.90
71672;DHT22;67659;45.554;11.812;2023-04-01T04:17:01;8.60;99.90
71672;DHT22;67659;45.554;11.812;2023-04-01T04:19:32;8.70;99.90
71672;DHT22;67659;45.554;11.812;2023-04-01T04:21:59;8.70;99.90
71672;DHT22;67659;45.554;11.812;2023-04-01T04:24:28;8.70;99.90
71672;DHT22;67659;45.554;11.812;2023-04-01T04:26:54;8.50;99.90
71672;DHT22;67659;45.554;11.812;2023-04-01T04:29:20;8.60;99.90
71672;DHT22;67659;45.554;11.812;2023-04-01T04:31:46;8.70;99.90
71672;DHT22;67659;45.554;11.812;2023-04-01T04:34:12;8.60;99.90
71672;DHT22;67659;45.554;11.812;2023-04-01T04:36:38;8.60;99.90
71672;DHT22;67659;45.554;11.812;2023-04-01T04:39:04;8.70;99.90
71672;DHT22;67659;45.554;11.812;2023-04-01T04:41:30;8.70;99.90
71672;DHT22;67659;45.554;11.812;2023-04-01T04:43:56;8.60;99.90
71672;DHT22;67659;45.554;11.812;2023-04-01T04:46:22;8.20;99.90
71672;DHT22;67659;45.554;11.812;2023-04-01T04:48:48;8.40;99.90
71672;DHT22;67659;45.554;11.812;2023-04-01T04:51:15;8.50;99.90
71672;DHT22;67659;45.554;11.812;2023-04-01T04:53:41;8.50;99.90
71672;DHT22;67659;45.554;11.812;2023-04-01T04:56:07;8.50;99.90
71672;DHT22;67659;45.554;11.812;2023-04-01T04:58:33;8.50;99.90
71672;DHT22;67659;45.554;11.812;2023-04-01T05:00:59;8.60;99.90
71672;DHT22;67659;45.554;11.812;2023-04-01T05:03:30;8.60;99.90
71672;DHT22;67659;45.554;11.812;2023-04-01T05:05:56;8.60;99.90
71672;DHT22;67659;45.554;11.812;2023-04-01T05:08:22;8.50;99.90
71672;DHT22;67659;45.554;11.812;2023-04-01T05:10:47;8.50;99.90
71672;DHT22;67659;45.554;11.812;2023-04-01T05:13:13;8.00;99.90
71672;DHT22;67659;45.554;11.812;2023-04-01T05:15:39;7.50;99.90
71672;DHT22;67659;45.554;11.812;2023-04-01T05:18:05;7.30;99.90
71672;DHT22;67659;45.554;11.812;2023-04-01T05:20:31;7.40;99.90
71672;DHT22;67659;45.554;11.812;2023-04-01T05:22:57;7.60;99.90
71672;DHT22;67659;45.554;11.812;2023-04-01T05:25:23;7.80;99.90
71672;DHT22;67659;45.554;11.812;2023-04-01T05:27:49;8.20;99.90
71672;DHT22;67659;45.554;11.812;2023-04-01T05:30:14;8.50;99.90
71672;DHT22;67659;45.554;11.812;2023-04-01T05:32:40;8.70;99.90
71672;DHT22;67659;45.554;11.812;2023-04-01T05:35:06;8.80;99.90
71672;DHT22;67659;45.554;11.812;2023-04-01T05:37:36;9.00;99.90
71672;DHT22;67659;45.554;11.812;2023-04-01T05:40:03;9.00;99.90
71672;DHT22;67659;45.554;11.812;2023-04-01T05:42:29;9.20;99.90
71672;DHT22;67659;45.554;11.812;2023-04-01T05:44:55;9.40;99.90
71672;DHT22;67659;45.554;11.812;2023-04-01T05:47:22;9.60;99.90
71672;DHT22;67659;45.554;11.812;2023-04-01T05:49:47;9.70;99.90
71672;DHT22;67659;45.554;11.812;2023-04-01T05:52:13;9.80;99.90
71672;DHT22;67659;45.554;11.812;2023-04-01T05:54:40;10.10;99.90
71672;DHT22;67659;45.554;11.812;2023-04-01T05:57:05;10.40;99.90
71672;DHT22;67659;45.554;11.812;2023-04-01T05:59:31;10.80;99.90
71672;DHT22;67659;45.554;11.812;2023-04-01T06:01:57;11.40;99.90
71672;DHT22;67659;45.554;11.812;2023-04-01T06:04:24;11.70;99.90
71672;DHT22;67659;45.554;11.812;2023-04-01T06:06:50;12.30;99.90
71672;DHT22;67659;45.554;11.812;2023-04-01T06:09:23;12.30;99.90
71672;DHT22;67659;45.554;11.812;2023-04-01T06:20:37;14.20;99.90
71672;DHT22;67659;45.554;11.812;2023-04-01T06:23:51;14.20;99.90
71672;DHT22;67659;45.554;11.812;2023-04-01T06:25:54;14.20;99.90
71672;DHT22;67659;45.554;11.812;2023-04-01T06:37:40;16.60;90.40
71672;DHT22;67659;45.554;11.812;2023-04-01T06:55:47;23.10;73.60
71672;DHT22;67659;45.554;11.812;2023-04-01T06:58:26;23.50;73.10
71672;DHT22;67659;45.554;11.812;2023-04-01T07:01:04;24.00;71.90
71672;DHT22;67659;45.554;11.812;2023-04-01T07:03:39;24.40;69.90
71672;DHT22;67659;45.554;11.812;2023-04-01T07:06:14;24.60;69.40
71672;DHT22;67659;45.554;11.812;2023-04-01T07:08:43;24.30;69.00
71672;DHT22;67659;45.554;11.812;2023-04-01T07:11:16;23.10;72.30
71672;DHT22;67659;45.554;11.812;2023-04-01T07:14:00;23.20;72.90
71672;DHT22;67659;45.554;11.812;2023-04-01T07:17:00;24.00;70.00
71672;DHT22;67659;45.554;11.812;2023-04-01T07:19:25;24.90;68.90
71672;DHT22;67659;45.554;11.812;2023-04-01T07:22:01;25.60;65.70
71672;DHT22;67659;45.554;11.812;2023-04-01T07:24:37;26.70;62.90
71672;DHT22;67659;45.554;11.812;2023-04-01T07:27:09;27.50;61.80
71672;DHT22;67659;45.554;11.812;2023-04-01T07:29:36;27.60;60.10
71672;DHT22;67659;45.554;11.812;2023-04-01T07:32:29;27.90;62.40
71672;DHT22;67659;45.554;11.812;2023-04-01T07:49:06;28.20;55.60
71672;DHT22;67659;45.554;11.812;2023-04-01T07:58:06;27.10;59.90
71672;DHT22;67659;45.554;11.812;2023-04-01T08:03:56;29.10;51.50
71672;DHT22;67659;45.554;11.812;2023-04-01T08:06:29;29.60;50.40
71672;DHT22;67659;45.554;11.812;2023-04-01T08:12:12;31.50;48.80
71672;DHT22;67659;45.554;11.812;2023-04-01T08:22:37;33.10;44.40
71672;DHT22;67659;45.554;11.812;2023-04-01T08:25:13;32.50;43.50
71672;DHT22;67659;45.554;11.812;2023-04-01T08:27:45;32.50;44.60
71672;DHT22;67659;45.554;11.812;2023-04-01T08:30:43;31.90;43.80
71672;DHT22;67659;45.554;11.812;2023-04-01T08:33:31;33.50;41.40
71672;DHT22;67659;45.554;11.812;2023-04-01T08:36:36;33.70;43.00
71672;DHT22;67659;45.554;11.812;2023-04-01T08:39:57;33.90;42.60
71672;DHT22;67659;45.554;11.812;2023-04-01T08:56:18;34.60;38.00
71672;DHT22;67659;45.554;11.812;2023-04-01T09:20:45;34.30;37.80
71672;DHT22;67659;45.554;11.812;2023-04-01T09:28:28;29.00;45.70
71672;DHT22;67659;45.554;11.812;2023-04-01T09:34:25;27.90;47.30
71672;DHT22;67659;45.554;11.812;2023-04-01T09:39:42;28.30;46.60
71672;DHT22;67659;45.554;11.812;2023-04-01T09:42:54;28.30;48.80
71672;DHT22;67659;45.554;11.812;2023-04-01T10:17:00;37.80;32.60
71672;DHT22;67659;45.554;11.812;2023-04-01T10:25:57;38.30;30.80
71672;DHT22;67659;45.554;11.812;2023-04-01T10:34:10;38.90;29.40
71672;DHT22;67659;45.554;11.812;2023-04-01T10:39:52;36.20;31.70
71672;DHT22;67659;45.554;11.812;2023-04-01T10:59:57;36.40;30.80
71672;DHT22;67659;45.554;11.812;2023-04-01T11:25:16;37.60;29.90
71672;DHT22;67659;45.554;11.812;2023-04-01T11:30:28;38.50;27.40
71672;DHT22;67659;45.554;11.812;2023-04-01T11:37:00;38.90;27.40
71672;DHT22;67659;45.554;11.812;2023-04-01T11:39:18;39.10;27.10
71672;DHT22;67659;45.554;11.812;2023-04-01T11:42:14;39.00;26.10
71672;DHT22;67659;45.554;11.812;2023-04-01T11:47:55;37.80;27.90
71672;DHT22;67659;45.554;11.812;2023-04-01T11:58:23;35.30;30.20
71672;DHT22;67659;45.554;11.812;2023-04-01T12:09:37;37.50;28.40
71672;DHT22;67659;45.554;11.812;2023-04-01T12:23:03;37.90;28.00
71672;DHT22;67659;45.554;11.812;2023-04-01T12:28:45;34.40;30.90
71672;DHT22;67659;45.554;11.812;2023-04-01T12:34:36;35.30;29.10
71672;DHT22;67659;45.554;11.812;2023-04-01T12:37:26;36.70;29.60
71672;DHT22;67659;45.554;11.812;2023-04-01T12:43:03;37.00;28.80
71672;DHT22;67659;45.554;11.812;2023-04-01T13:20:54;36.40;29.70
71672;DHT22;67659;45.554;11.812;2023-04-01T13:23:47;36.30;30.90
71672;DHT22;67659;45.554;11.812;2023-04-01T13:29:20;37.10;29.70
71672;DHT22;67659;45.554;11.812;2023-04-01T13:40:34;38.00;28.10
71672;DHT22;67659;45.554;11.812;2023-04-01T13:43:26;37.80;27.50
71672;DHT22;67659;45.554;11.812;2023-04-01T13:48:58;38.40;27.60
71672;DHT22;67659;45.554;11.812;2023-04-01T14:10:52;34.00;31.00
71672;DHT22;67659;45.554;11.812;2023-04-01T14:23:13;33.70;27.80
71672;DHT22;67659;45.554;11.812;2023-04-01T14:28:25;34.00;28.20
71672;DHT22;67659;45.554;11.812;2023-04-01T14:33:57;32.30;30.30
71672;DHT22;67659;45.554;11.812;2023-04-01T14:42:33;31.20;33.90
71672;DHT22;67659;45.554;11.812;2023-04-01T14:50:49;27.80;36.00
71672;DHT22;67659;45.554;11.812;2023-04-01T14:53:27;27.30;38.20
71672;DHT22;67659;45.554;11.812;2023-04-01T14:56:00;26.10;38.50
71672;DHT22;67659;45.554;11.812;2023-04-01T14:58:58;25.70;42.20
71672;DHT22;67659;45.554;11.812;2023-04-01T15:15:56;24.40;43.40
71672;DHT22;67659;45.554;11.812;2023-04-01T15:21:25;24.60;43.00
71672;DHT22;67659;45.554;11.812;2023-04-01T15:24:14;24.60;45.00
71672;DHT22;67659;45.554;11.812;2023-04-01T15:37:28;24.00;49.70
71672;DHT22;67659;45.554;11.812;2023-04-01T16:19:04;22.10;71.20
71672;DHT22;67659;45.554;11.812;2023-04-01T16:26:55;22.00;71.60
71672;DHT22;67659;45.554;11.812;2023-04-01T16:29:52;21.90;71.50
71672;DHT22;67659;45.554;11.812;2023-04-01T16:32:41;21.90;72.40
71672;DHT22;67659;45.554;11.812;2023-04-01T16:41:20;21.70;72.40
71672;DHT22;67659;45.554;11.812;2023-04-01T16:43:56;21.60;73.10
71672;DHT22;67659;45.554;11.812;2023-04-01T16:46:34;21.30;73.30
71672;DHT22;67659;45.554;11.812;2023-04-01T16:52:04;21.20;74.10
71672;DHT22;67659;45.554;11.812;2023-04-01T16:55:01;21.20;74.00
71672;DHT22;67659;45.554;11.812;2023-04-01T16:57:59;21.10;74.40
71672;DHT22;67659;45.554;11.812;2023-04-01T17:00:38;21.00;74.70
71672;DHT22;67659;45.554;11.812;2023-04-01T17:03:11;20.90;74.90
71672;DHT22;67659;45.554;11.812;2023-04-01T17:21:49;20.10;77.60
71672;DHT22;67659;45.554;11.812;2023-04-01T17:27:30;19.90;78.20
71672;DHT22;67659;45.554;11.812;2023-04-01T17:32:58;19.70;79.80
71672;DHT22;67659;45.554;11.812;2023-04-01T17:35:32;19.50;80.30
71672;DHT22;67659;45.554;11.812;2023-04-01T18:00:18;18.80;84.00
71672;DHT22;67659;45.554;11.812;2023-04-01T18:06:09;18.60;85.00
71672;DHT22;67659;45.554;11.812;2023-04-01T18:22:22;17.60;97.70
71672;DHT22;67659;45.554;11.812;2023-04-01T18:25:04;17.50;99.90
71672;DHT22;67659;45.554;11.812;2023-04-01T18:27:36;17.30;99.90
71672;DHT22;67659;45.554;11.812;2023-04-01T18:30:13;17.20;99.90
71672;DHT22;67659;45.554;11.812;2023-04-01T18:32:51;17.10;99.90
71672;DHT22;67659;45.554;11.812;2023-04-01T18:38:30;16.90;99.90
71672;DHT22;67659;45.554;11.812;2023-04-01T18:52:34;16.50;99.90
71672;DHT22;67659;45.554;11.812;2023-04-01T19:00:32;16.50;99.90
71672;DHT22;67659;45.554;11.812;2023-04-01T19:03:10;16.40;99.90
71672;DHT22;67659;45.554;11.812;2023-04-01T19:05:42;16.40;99.90
71672;DHT22;67659;45.554;11.812;2023-04-01T19:08:24;16.40;99.90
71672;DHT22;67659;45.554;11.812;2023-04-01T19:13:52;16.20;99.90
71672;DHT22;67659;45.554;11.812;2023-04-01T19:27:41;15.80;99.90
71672;DHT22;67659;45.554;11.812;2023-04-01T19:41:00;16.00;99.90
71672;DHT22;67659;45.554;11.812;2023-04-01T19:46:22;16.10;99.90
71672;DHT22;67659;45.554;11.812;2023-04-01T19:51:48;16.10;99.90
71672;DHT22;67659;45.554;11.812;2023-04-01T19:57:14;16.10;99.90
71672;DHT22;67659;45.554;11.812;2023-04-01T20:03:21;16.00;99.90
71672;DHT22;67659;45.554;11.812;2023-04-01T20:06:31;16.10;99.90
71672;DHT22;67659;45.554;11.812;2023-04-01T20:12:36;16.10;99.90
71672;DHT22;67659;45.554;11.812;2023-04-01T20:15:33;16.30;99.90
71672;DHT22;67659;45.554;11.812;2023-04-01T20:18:02;16.10;99.90
71672;DHT22;67659;45.554;11.812;2023-04-01T20:20:30;16.10;99.90
71672;DHT22;67659;45.554;11.812;2023-04-01T20:23:25;16.10;99.90
71672;DHT22;67659;45.554;11.812;2023-04-01T20:26:03;16.10;99.90
71672;DHT22;67659;45.554;11.812;2023-04-01T20:50:52;16.00;99.90
71672;DHT22;67659;45.554;11.812;2023-04-01T20:53:36;15.90;99.90
71672;DHT22;67659;45.554;11.812;2023-04-01T21:01:34;15.80;99.90
71672;DHT22;67659;45.554;11.812;2023-04-01T21:08:02;15.80;99.90
71672;DHT22;67659;45.554;11.812;2023-04-01T21:10:18;15.80;99.90
71672;DHT22;67659;45.554;11.812;2023-04-01T21:35:29;15.40;99.90
71672;DHT22;67659;45.554;11.812;2023-04-01T21:52:27;15.40;99.90
71672;DHT22;67659;45.554;11.812;2023-04-01T21:58:21;15.40;99.90
71672;DHT22;67659;45.554;11.812;2023-04-01T22:04:01;15.50;99.90
71672;DHT22;67659;45.554;11.812;2023-04-01T22:06:43;15.60;99.90
71672;DHT22;67659;45.554;11.812;2023-04-01T22:09:24;15.60;99.90
71672;DHT22;67659;45.554;11.812;2023-04-01T22:12:17;15.70;99.90
71672;DHT22;67659;45.554;11.812;2023-04-01T22:14:49;15.60;99.90
71672;DHT22;67659;45.554;11.812;2023-04-01T22:17:26;15.50;99.90
71672;DHT22;67659;45.554;11.812;2023-04-01T22:20:21;15.60;99.90
71672;DHT22;67659;45.554;11.812;2023-04-01T22:22:55;15.60;99.90
71672;DHT22;67659;45.554;11.812;2023-04-01T22:28:00;15.30;99.90
71672;DHT22;67659;45.554;11.812;2023-04-01T22:30:50;15.30;99.90
71672;DHT22;67659;45.554;11.812;2023-04-01T22:33:34;15.30;99.90
71672;DHT22;67659;45.554;11.812;2023-04-01T22:39:04;15.40;99.90
71672;DHT22;67659;45.554;11.812;2023-04-01T22:49:42;15.10;99.90
71672;DHT22;67659;45.554;11.812;2023-04-01T22:52:17;15.20;99.90
71672;DHT22;67659;45.554;11.812;2023-04-01T22:54:52;15.00;99.90
71672;DHT22;67659;45.554;11.812;2023-04-01T23:00:30;15.10;99.90
71672;DHT22;67659;45.554;11.812;2023-04-01T23:05:46;15.10;99.90
71672;DHT22;67659;45.554;11.812;2023-04-01T23:11:02;15.20;99.90
71672;DHT22;67659;45.554;11.812;2023-04-01T23:13:39;15.30;99.90
71672;DHT22;67659;45.554;11.812;2023-04-01T23:16:08;15.30;99.90
71672;DHT22;67659;45.554;11.812;2023-04-01T23:18:55;15.20;99.90
71672;DHT22;67659;45.554;11.812;2023-04-01T23:24:24;15.00;99.90
71672;DHT22;67659;45.554;11.812;2023-04-01T23:27:14;15.10;99.90
71672;DHT22;67659;45.554;11.812;2023-04-01T23:29:42;15.00;99.90
71672;DHT22;67659;45.554;11.812;2023-04-01T23:32:19;15.10;99.90
71672;DHT22;67659;45.554;11.812;2023-04-01T23:34:52;15.10;99.90
71672;DHT22;67659;45.554;11.812;2023-04-01T23:37:20;15.20;99.90
71672;DHT22;67659;45.554;11.812;2023-04-01T23:39:59;15.20;99.90
71672;DHT22;67659;45.554;11.812;2023-04-01T23:42:30;15.10;99.90
71672;DHT22;67659;45.554;11.812;2023-04-01T23:45:11;15.20;99.90
71672;DHT22;67659;45.554;11.812;2023-04-01T23:47:40;15.10;99.90
71672;DHT22;67659;45.554;11.812;2023-04-01T23:52:37;15.00;99.90
71672;DHT22;67659;45.554;11.812;2023-04-01T23:57:36;15.20;99.90
